Time;durP1;ratioP1;P1;durP2;ratioP2;P2;SDS_P1;SDS_P2;PMS_P1;PMS_P2;Temp;Humidity;BMP_temperature;BMP_pressure;BME280_temperature;BME280_humidity;BME280_pressure;Samples;Min_cycle;Max_cycle;Signal;HPM_P1;HPM_P2
2023/11/01 00:00:21;;;;;;;0.10;0.10;;;;;;;14.29;75.35;100390.47;4997352;28;20066;-85
2023/11/01 00:02:47;;;;;;;0.10;0.10;;;;;;;14.27;75.48;100384.31;4984058;28;20038;-85
2023/11/01 00:05:13;;;;;;;0.20;0.20;;;;;;;14.29;75.29;100385.13;4980324;28;20057;-84
2023/11/01 00:07:40;;;;;;;0.10;0.10;;;;;;;14.31;75.41;100383.28;4983951;28;20429;-85
2023/11/01 00:10:06;;;;;;;0.10;0.10;;;;;;;14.33;75.21;100381.41;4985226;28;20107;-85
2023/11/01 00:12:32;;;;;;;0.10;0.10;;;;;;;14.31;75.46;100377.94;4978064;28;20030;-85
2023/11/01 00:14:59;;;;;;;0.10;0.10;;;;;;;14.30;75.22;100373.53;4977292;28;20034;-84
2023/11/01 00:17:25;;;;;;;0.10;0.10;;;;;;;14.32;75.42;100379.69;4981179;28;20035;-85
2023/11/01 00:19:51;;;;;;;0.10;0.10;;;;;;;14.30;75.56;100371.75;4978302;28;20494;-85
2023/11/01 00:22:18;;;;;;;0.10;0.10;;;;;;;14.31;75.54;100372.63;5036043;22;20049;-84
2023/11/01 00:24:44;;;;;;;0.10;0.10;;;;;;;14.31;75.35;100364.63;5041948;28;20044;-85
2023/11/01 00:27:10;;;;;;;0.10;0.10;;;;;;;14.29;75.68;100364.66;5030014;28;20032;-84
2023/11/01 00:29:36;;;;;;;0.10;0.10;;;;;;;14.33;75.37;100365.41;5039871;28;20037;-85
2023/11/01 00:32:03;;;;;;;0.00;0.00;;;;;;;14.33;75.57;100358.28;5041208;28;20041;-84
2023/11/01 00:34:29;;;;;;;3.55;0.65;;;;;;;14.33;75.48;100352.09;5040219;28;20037;-83
2023/11/01 00:36:55;;;;;;;0.10;0.10;;;;;;;14.31;75.34;100351.31;5043270;28;20034;-82
2023/11/01 00:39:21;;;;;;;0.20;0.20;;;;;;;14.24;75.69;100348.91;5044768;28;20053;-79
2023/11/01 00:41:47;;;;;;;0.43;0.43;;;;;;;14.31;75.49;100348.63;5041945;28;20037;-80
2023/11/01 00:44:13;;;;;;;0.10;0.10;;;;;;;14.24;75.52;100346.25;5038007;28;20037;-81
2023/11/01 00:46:39;;;;;;;0.10;0.10;;;;;;;14.28;75.71;100351.41;5038792;28;20025;-81
2023/11/01 00:49:06;;;;;;;0.10;0.10;;;;;;;14.28;75.67;100351.41;5040330;28;20026;-80
2023/11/01 00:51:32;;;;;;;0.10;0.10;;;;;;;14.29;75.64;100355.81;5036627;28;20038;-82
2023/11/01 00:53:58;;;;;;;0.10;0.10;;;;;;;14.30;75.42;100352.22;5039242;28;20098;-81
2023/11/01 00:56:24;;;;;;;0.47;0.47;;;;;;;14.29;75.40;100353.16;5040911;28;20034;-81
2023/11/01 00:58:50;;;;;;;0.45;0.45;;;;;;;14.28;75.28;100338.97;5029477;28;20038;-81
2023/11/01 01:01:16;;;;;;;0.52;0.52;;;;;;;14.31;75.22;100340.66;5042333;28;20033;-81
2023/11/01 01:03:43;;;;;;;0.40;0.40;;;;;;;14.26;75.28;100343.50;5042502;28;20033;-81
2023/11/01 01:06:09;;;;;;;0.10;0.10;;;;;;;14.20;75.69;100336.63;5040440;28;20029;-82
2023/11/01 01:08:35;;;;;;;0.10;0.10;;;;;;;14.28;75.31;100340.75;5039622;28;20049;-81
2023/11/01 01:11:01;;;;;;;0.10;0.10;;;;;;;14.28;75.47;100330.97;5037268;28;20045;-79
2023/11/01 01:13:27;;;;;;;0.10;0.10;;;;;;;14.23;75.65;100328.50;5037577;28;20034;-81
2023/11/01 01:15:53;;;;;;;0.47;0.47;;;;;;;14.24;75.65;100327.59;5034613;28;20546;-80
2023/11/01 01:18:20;;;;;;;0.20;0.20;;;;;;;14.29;75.70;100327.34;5032654;28;20029;-83
2023/11/01 01:20:47;;;;;;;0.10;0.10;;;;;;;14.29;75.58;100323.84;5035552;28;20036;-82
2023/11/01 01:23:14;;;;;;;0.45;0.45;;;;;;;14.24;75.85;100311.59;5034900;28;20092;-83
2023/11/01 01:25:40;;;;;;;0.10;0.10;;;;;;;14.27;75.86;100315.03;5037686;28;20451;-83
2023/11/01 01:28:06;;;;;;;0.40;0.40;;;;;;;14.34;75.71;100305.84;5032099;28;20041;-83
2023/11/01 01:30:33;;;;;;;0.00;0.00;;;;;;;14.32;75.79;100300.59;5038147;28;20025;-84
2023/11/01 01:32:59;;;;;;;0.20;0.20;;;;;;;14.32;75.54;100299.75;5037155;28;20061;-84
2023/11/01 01:35:25;;;;;;;0.10;0.10;;;;;;;14.23;76.07;100296.53;5035090;28;20044;-83
2023/11/01 01:37:51;;;;;;;0.40;0.40;;;;;;;14.34;75.56;100287.19;5033244;28;20045;-82
2023/11/01 01:40:17;;;;;;;0.10;0.10;;;;;;;14.31;75.74;100287.34;5036639;28;20025;-83
2023/11/01 01:42:46;;;;;;;0.80;0.80;;;;;;;14.33;75.79;100280.13;5033829;28;20499;-84
2023/11/01 01:45:12;;;;;;;0.10;0.10;;;;;;;14.32;75.45;100276.63;5034451;28;20099;-84
2023/11/01 01:47:39;;;;;;;0.00;0.00;;;;;;;14.32;75.66;100270.44;5036984;28;20095;-85
2023/11/01 01:50:08;;;;;;;0.10;0.10;;;;;;;14.33;75.74;100267.69;5029449;28;20669;-83
2023/11/01 01:52:34;;;;;;;0.10;0.10;;;;;;;14.30;75.77;100269.63;5036155;28;20071;-82
2023/11/01 01:55:03;;;;;;;0.10;0.10;;;;;;;14.22;75.79;100268.16;5033993;28;20052;-82
2023/11/01 01:57:29;;;;;;;0.10;0.10;;;;;;;14.28;75.42;100261.69;5025278;28;20029;-83
2023/11/01 01:59:59;;;;;;;0.10;0.10;;;;;;;14.27;75.44;100259.09;5032803;28;20034;-81
2023/11/01 02:02:25;;;;;;;0.10;0.10;;;;;;;14.27;75.49;100256.41;5029228;28;20068;-83
2023/11/01 02:04:51;;;;;;;0.40;0.35;;;;;;;14.22;75.48;100254.84;5028472;28;20021;-84
2023/11/01 02:07:18;;;;;;;0.25;0.25;;;;;;;14.23;75.49;100250.34;5034338;28;20021;-84
2023/11/01 02:09:44;;;;;;;0.10;0.10;;;;;;;14.25;75.43;100248.50;5049629;28;20025;-81
2023/11/01 02:12:10;;;;;;;0.20;0.20;;;;;;;14.23;75.41;100237.91;5056732;28;20022;-81
2023/11/01 02:14:36;;;;;;;0.10;0.10;;;;;;;14.22;75.44;100238.84;5052949;28;20043;-83
2023/11/01 02:17:06;;;;;;;0.10;0.10;;;;;;;14.25;75.45;100235.19;5051235;28;20041;-82
2023/11/01 02:19:33;;;;;;;0.43;0.43;;;;;;;14.20;75.63;100238.03;5050781;28;20055;-82
2023/11/01 02:21:59;;;;;;;0.10;0.10;;;;;;;14.24;75.60;100229.00;5048017;28;20033;-83
2023/11/01 02:24:25;;;;;;;0.10;0.10;;;;;;;14.20;75.59;100229.19;5035895;28;20089;-84
2023/11/01 02:26:51;;;;;;;0.10;0.10;;;;;;;14.21;75.35;100229.13;5041662;28;20021;-85
2023/11/01 02:29:18;;;;;;;0.35;0.35;;;;;;;14.18;75.58;100218.63;5046021;28;20120;-85
2023/11/01 02:31:44;;;;;;;0.30;0.30;;;;;;;14.20;75.49;100218.53;5048266;28;20033;-83
2023/11/01 02:34:10;;;;;;;0.40;0.40;;;;;;;14.22;75.44;100216.69;5047740;28;20040;-82
2023/11/01 02:36:36;;;;;;;0.10;0.10;;;;;;;14.20;75.47;100206.06;5047058;28;20026;-83
2023/11/01 02:39:02;;;;;;;0.10;0.10;;;;;;;14.20;75.36;100200.75;5049567;28;20040;-82
2023/11/01 02:41:28;;;;;;;0.10;0.10;;;;;;;14.23;75.35;100205.06;5036898;28;20551;-84
2023/11/01 02:43:55;;;;;;;0.20;0.20;;;;;;;14.21;75.30;100197.16;5038813;28;20033;-83
2023/11/01 02:46:21;;;;;;;0.10;0.10;;;;;;;14.21;75.26;100193.63;5036705;28;20052;-81
2023/11/01 02:48:47;;;;;;;0.10;0.10;;;;;;;14.23;75.55;100187.28;5036613;28;20033;-83
2023/11/01 02:51:13;;;;;;;0.10;0.10;;;;;;;14.24;75.39;100189.03;5036218;28;20048;-82
2023/11/01 02:53:39;;;;;;;0.30;0.30;;;;;;;14.23;75.37;100184.63;5033708;28;20079;-82
2023/11/01 02:56:08;;;;;;;0.10;0.10;;;;;;;14.23;75.33;100184.63;5037693;28;20025;-82
2023/11/01 02:58:36;;;;;;;2.35;1.55;;;;;;;14.18;75.40;100183.09;5039001;28;20120;-82
2023/11/01 03:01:02;;;;;;;0.10;0.10;;;;;;;14.21;75.39;100170.50;5035227;28;20033;-82
2023/11/01 03:03:28;;;;;;;0.10;0.10;;;;;;;14.24;75.23;100175.72;5038135;28;20032;-82
2023/11/01 03:05:54;;;;;;;0.17;0.17;;;;;;;14.24;75.39;100170.38;5034804;28;20465;-82
2023/11/01 03:08:20;;;;;;;0.10;0.10;;;;;;;14.22;75.33;100172.25;5036406;28;20059;-82
2023/11/01 03:10:47;;;;;;;0.10;0.10;;;;;;;14.22;75.33;100171.38;5039569;28;20500;-82
2023/11/01 03:13:13;;;;;;;0.32;0.32;;;;;;;14.24;75.17;100167.72;5040386;28;20400;-82
2023/11/01 03:15:39;;;;;;;0.10;0.10;;;;;;;14.28;75.27;100164.91;5033181;28;20116;-82
2023/11/01 03:18:05;;;;;;;0.10;0.10;;;;;;;14.30;75.28;100163.03;5034467;28;20504;-83
2023/11/01 03:20:32;;;;;;;0.10;0.10;;;;;;;14.30;75.31;100163.88;5033602;28;20072;-82
2023/11/01 03:22:58;;;;;;;0.30;0.30;;;;;;;14.27;75.25;100157.84;5032909;28;20389;-83
2023/11/01 03:25:24;;;;;;;0.10;0.10;;;;;;;14.29;75.42;100158.63;5031792;28;20031;-83
2023/11/01 03:27:50;;;;;;;0.10;0.10;;;;;;;14.25;75.40;100149.91;5027613;28;20030;-82
2023/11/01 03:30:17;;;;;;;0.10;0.10;;;;;;;14.26;75.49;100150.81;5030993;28;20064;-82
2023/11/01 03:32:43;;;;;;;0.10;0.10;;;;;;;14.31;75.37;100149.63;5034380;28;20021;-81
2023/11/01 03:35:09;;;;;;;0.47;0.47;;;;;;;14.29;75.25;100153.31;5036508;28;20530;-82
2023/11/01 03:37:35;;;;;;;0.25;0.25;;;;;;;14.33;75.48;100147.78;5033913;28;20030;-83
2023/11/01 03:40:02;;;;;;;1.77;0.85;;;;;;;14.28;75.60;100148.91;5034631;28;20025;-81
2023/11/01 03:42:28;;;;;;;0.10;0.10;;;;;;;14.30;75.34;100141.72;5029627;28;20022;-82
2023/11/01 03:44:55;;;;;;;0.10;0.10;;;;;;;14.28;75.63;100138.25;5037250;28;20040;-82
2023/11/01 03:47:21;;;;;;;5.30;1.27;;;;;;;14.30;75.59;100136.38;5029957;28;20036;-81
2023/11/01 03:49:47;;;;;;;0.10;0.10;;;;;;;14.32;75.48;100129.19;5037960;28;20033;-81
2023/11/01 03:52:13;;;;;;;0.10;0.10;;;;;;;14.30;75.59;100131.06;5037200;28;20059;-82
2023/11/01 03:54:39;;;;;;;0.10;0.10;;;;;;;14.34;75.62;100133.50;5035572;28;20025;-81
2023/11/01 03:57:06;;;;;;;0.10;0.10;;;;;;;14.33;75.50;100133.56;5034491;28;20032;-82
2023/11/01 03:59:33;;;;;;;0.10;0.10;;;;;;;14.34;75.64;100128.19;5036075;28;20036;-81
2023/11/01 04:01:59;;;;;;;0.10;0.10;;;;;;;14.35;75.66;100126.38;5035108;28;20061;-82
2023/11/01 04:04:25;;;;;;;0.43;0.43;;;;;;;14.32;75.66;100126.53;5033685;28;20093;-81
2023/11/01 04:06:52;;;;;;;0.10;0.10;;;;;;;14.39;75.61;100125.28;5029345;28;20032;-81
2023/11/01 04:09:18;;;;;;;0.65;0.65;;;;;;;14.38;75.67;100118.22;5032144;28;20467;-80
2023/11/01 04:11:44;;;;;;;0.05;0.05;;;;;;;14.35;75.85;100115.72;5032807;28;20037;-80
2023/11/01 04:14:10;;;;;;;0.10;0.10;;;;;;;14.37;75.82;100113.84;5029416;28;20440;-82
2023/11/01 04:16:36;;;;;;;0.10;0.10;;;;;;;14.34;75.86;100112.19;5041782;28;20052;-81
2023/11/01 04:19:05;;;;;;;0.10;0.10;;;;;;;14.37;75.75;100111.19;5046170;28;20041;-84
2023/11/01 04:21:31;;;;;;;0.10;0.10;;;;;;;14.35;75.61;100102.38;5040346;28;20400;-83
2023/11/01 04:23:57;;;;;;;0.10;0.10;;;;;;;14.35;75.73;100100.56;5041852;28;20519;-82
2023/11/01 04:26:23;;;;;;;0.05;0.05;;;;;;;14.38;75.77;100097.78;5042793;28;20025;-82
2023/11/01 04:28:49;;;;;;;0.43;0.40;;;;;;;14.34;75.88;100096.22;5040010;28;20037;-80
2023/11/01 04:31:17;;;;;;;0.10;0.10;;;;;;;14.39;76.05;100104.84;5033365;28;20031;-83
2023/11/01 04:33:43;;;;;;;0.20;0.20;;;;;;;14.39;76.26;100111.97;5032541;28;20103;-83
2023/11/01 04:36:10;;;;;;;1.15;1.15;;;;;;;14.37;76.32;100100.53;5032262;28;20117;-83
2023/11/01 04:38:37;;;;;;;0.10;0.10;;;;;;;14.34;76.31;100105.97;5029305;28;20092;-83
2023/11/01 04:41:08;;;;;;;0.10;0.10;;;;;;;14.40;76.24;100095.91;5031916;28;20048;-81
2023/11/01 04:43:36;;;;;;;0.20;0.20;;;;;;;14.41;76.31;100091.44;5033892;28;20025;-82
2023/11/01 04:46:02;;;;;;;0.10;0.10;;;;;;;14.45;76.53;100093.00;5033222;28;20026;-82
2023/11/01 04:48:28;;;;;;;4.07;1.88;;;;;;;14.46;76.60;100091.22;5033998;28;20025;-81
2023/11/01 04:50:55;;;;;;;0.10;0.10;;;;;;;14.47;76.58;100084.97;5031976;28;20052;-82
2023/11/01 04:53:21;;;;;;;0.10;0.10;;;;;;;14.53;76.58;100093.50;5027611;28;20038;-82
2023/11/01 04:55:47;;;;;;;0.10;0.10;;;;;;;14.49;76.60;100088.41;5032892;28;20489;-81
2023/11/01 04:58:13;;;;;;;0.10;0.10;;;;;;;14.55;76.46;100083.66;5033962;28;20123;-82
2023/11/01 05:00:39;;;;;;;0.73;0.73;;;;;;;14.58;76.57;100087.97;5034137;28;20493;-82
2023/11/01 05:03:05;;;;;;;0.20;0.20;;;;;;;14.55;76.95;100077.44;5033638;28;20404;-82
2023/11/01 05:05:33;;;;;;;0.10;0.10;;;;;;;14.53;77.05;100074.84;5030251;28;20041;-82
2023/11/01 05:08:00;;;;;;;0.10;0.10;;;;;;;14.59;76.94;100072.81;5035866;28;20091;-82
2023/11/01 05:10:26;;;;;;;0.20;0.20;;;;;;;14.58;77.18;100071.97;5037382;28;20026;-79
2023/11/01 05:12:52;;;;;;;0.10;0.10;;;;;;;14.61;77.34;100070.94;5037620;28;20523;-78
2023/11/01 05:15:18;;;;;;;0.15;0.15;;;;;;;14.63;77.25;100069.94;5038284;28;20036;-78
2023/11/01 05:17:45;;;;;;;0.10;0.10;;;;;;;14.61;77.85;100073.63;5036526;28;20048;-83
2023/11/01 05:20:11;;;;;;;1.65;0.80;;;;;;;14.64;77.82;100060.13;5036989;28;20055;-81
2023/11/01 05:22:37;;;;;;;0.05;0.05;;;;;;;14.62;78.17;100062.03;5035046;28;20026;-80
2023/11/01 05:25:13;;;;;;;0.10;0.10;;;;;;;14.68;78.28;100053.75;5036609;28;20033;-80
2023/11/01 05:27:41;;;;;;;0.20;0.20;;;;;;;14.75;78.11;100051.63;5033983;28;20021;-80
2023/11/01 05:30:10;;;;;;;0.75;0.75;;;;;;;14.77;78.04;100058.59;5036462;28;20029;-81
2023/11/01 05:32:36;;;;;;;0.20;0.20;;;;;;;14.76;77.94;100054.22;5042633;28;20029;-82
2023/11/01 05:35:03;;;;;;;0.10;0.10;;;;;;;14.72;78.79;100055.31;5035861;28;20045;-83
2023/11/01 05:37:29;;;;;;;0.75;0.75;;;;;;;14.83;78.25;100049.44;5041605;28;20503;-82
2023/11/01 05:39:56;;;;;;;0.22;0.22;;;;;;;14.90;78.18;100053.50;5046352;28;20033;-82
2023/11/01 05:42:22;;;;;;;0.55;0.55;;;;;;;14.85;78.01;100047.56;5044607;28;20029;-82
2023/11/01 05:44:50;;;;;;;1.48;1.38;;;;;;;14.85;78.76;100047.56;5047401;28;20457;-82
2023/11/01 05:47:16;;;;;;;2.08;0.43;;;;;;;14.95;78.07;100042.63;5049245;28;20064;-81
2023/11/01 05:49:42;;;;;;;0.10;0.10;;;;;;;14.88;78.34;100048.25;5048268;28;20495;-81
2023/11/01 05:52:09;;;;;;;0.10;0.10;;;;;;;14.86;78.70;100050.13;5048856;28;20048;-82
2023/11/01 05:54:35;;;;;;;0.28;0.28;;;;;;;14.91;78.45;100041.06;5047106;28;20064;-81
2023/11/01 05:57:01;;;;;;;0.10;0.10;;;;;;;14.82;78.81;100040.56;5051339;28;20081;-82
2023/11/01 05:59:28;;;;;;;1.30;1.08;;;;;;;14.94;78.31;100038.22;5039142;28;20373;-84
2023/11/01 06:01:54;;;;;;;0.10;0.10;;;;;;;14.82;78.33;100048.56;5035446;28;20389;-82
2023/11/01 06:04:21;;;;;;;0.10;0.10;;;;;;;14.91;78.32;100046.38;5042322;28;20045;-82
2023/11/01 06:06:47;;;;;;;0.00;0.00;;;;;;;15.06;77.97;100040.25;5043145;28;20100;-84
2023/11/01 06:09:18;;;;;;;0.20;0.20;;;;;;;14.98;77.84;100031.81;5039552;28;20040;-83
2023/11/01 06:11:44;;;;;;;0.10;0.10;;;;;;;15.00;78.06;100035.22;5043743;28;20021;-83
2023/11/01 06:14:10;;;;;;;0.20;0.20;;;;;;;15.10;77.51;100031.16;5043316;28;20284;-83
2023/11/01 06:16:36;;;;;;;0.10;0.10;;;;;;;15.03;77.96;100035.94;5037430;28;20132;-82
2023/11/01 06:19:03;;;;;;;0.10;0.10;;;;;;;15.07;77.32;100035.81;5043918;28;20041;-82
2023/11/01 06:21:30;;;;;;;0.10;0.10;;;;;;;15.13;77.22;100040.81;5046524;28;20060;-82
2023/11/01 06:23:57;;;;;;;0.10;0.10;;;;;;;15.07;77.22;100044.66;5055540;28;20060;-83
2023/11/01 06:26:23;;;;;;;0.10;0.10;;;;;;;15.08;77.19;100043.72;5047879;28;20034;-84
2023/11/01 06:28:49;;;;;;;0.10;0.10;;;;;;;15.09;77.25;100040.13;5042833;28;20030;-83
2023/11/01 06:31:18;;;;;;;7.03;2.80;;;;;;;15.01;77.73;100042.31;5049277;28;20045;-83
2023/11/01 06:33:44;;;;;;;0.10;0.10;;;;;;;15.03;77.59;100029.75;5048269;28;20097;-84
2023/11/01 06:36:11;;;;;;;0.10;0.10;;;;;;;14.98;77.57;100037.13;5047411;28;20079;-85
2023/11/01 06:38:37;;;;;;;0.10;0.10;;;;;;;14.97;77.64;100041.59;5045065;28;20503;-84
2023/11/01 06:41:05;;;;;;;0.28;0.28;;;;;;;15.00;77.39;100040.56;5042749;28;20033;-83
2023/11/01 06:43:31;;;;;;;0.10;0.10;;;;;;;15.00;77.42;100036.13;5042877;28;20040;-84
2023/11/01 06:45:58;;;;;;;0.10;0.10;;;;;;;15.06;77.09;100034.91;5046196;28;20033;-85
2023/11/01 06:48:24;;;;;;;0.10;0.10;;;;;;;14.96;77.45;100036.34;5047094;28;20514;-86
2023/11/01 06:50:50;;;;;;;0.00;0.00;;;;;;;14.98;77.41;100042.47;5044765;28;20060;-84
2023/11/01 06:53:16;;;;;;;0.10;0.10;;;;;;;14.89;77.72;100035.78;5038939;28;20029;-82
2023/11/01 06:55:42;;;;;;;0.10;0.10;;;;;;;14.91;77.34;100035.72;5037311;28;20039;-85
2023/11/01 06:58:08;;;;;;;0.75;0.75;;;;;;;14.95;77.63;100037.28;5042316;28;20037;-82
2023/11/01 07:00:35;;;;;;;0.25;0.25;;;;;;;14.94;77.20;100035.56;5040521;28;20033;-82
2023/11/01 07:03:01;;;;;;;0.00;0.00;;;;;;;14.91;76.95;100030.38;5037910;28;20066;-80
2023/11/01 07:05:27;;;;;;;0.10;0.10;;;;;;;14.93;77.15;100034.69;5035554;28;20049;-83
2023/11/01 07:07:53;;;;;;;0.10;0.10;;;;;;;14.88;77.13;100034.94;5041326;28;20029;-81
2023/11/01 07:10:19;;;;;;;0.10;0.10;;;;;;;14.95;76.93;100030.13;5035515;28;20037;-85
2023/11/01 07:12:45;;;;;;;0.10;0.10;;;;;;;14.94;76.82;100032.88;5040708;28;20039;-84
2023/11/01 07:15:11;;;;;;;0.10;0.10;;;;;;;14.91;76.63;100035.72;5045732;28;20033;-84
2023/11/01 07:17:38;;;;;;;0.10;0.10;;;;;;;14.84;76.95;100037.81;5045553;28;20021;-82
2023/11/01 07:20:04;;;;;;;0.10;0.10;;;;;;;14.93;76.61;100032.03;5038127;28;20072;-82
2023/11/01 07:22:31;;;;;;;0.10;0.10;;;;;;;14.95;76.12;100031.94;5042934;28;20074;-81
2023/11/01 07:24:57;;;;;;;0.57;0.30;;;;;;;14.94;76.28;100036.44;5041308;28;20088;-82
2023/11/01 07:27:23;;;;;;;0.10;0.10;;;;;;;14.90;76.23;100036.66;5041362;28;20048;-82
2023/11/01 07:29:49;;;;;;;0.10;0.10;;;;;;;14.91;76.59;100041.06;5035211;28;20028;-82
2023/11/01 07:32:16;;;;;;;0.00;0.00;;;;;;;14.93;76.74;100036.47;5039487;28;20037;-81
2023/11/01 07:34:42;;;;;;;0.10;0.10;;;;;;;15.03;76.40;100030.59;5032387;28;20030;-82
2023/11/01 07:37:09;;;;;;;0.10;0.10;;;;;;;15.05;76.07;100027.84;5036647;28;20032;-84
2023/11/01 07:39:35;;;;;;;0.10;0.10;;;;;;;15.00;76.53;100029.91;5030407;28;20171;-88
2023/11/01 07:42:01;;;;;;;0.10;0.10;;;;;;;14.90;76.83;100028.66;5032554;28;20048;-86
2023/11/01 07:44:27;;;;;;;0.57;0.57;;;;;;;15.04;76.47;100026.13;5028687;28;20033;-84
2023/11/01 07:46:56;;;;;;;0.10;0.10;;;;;;;15.10;76.29;100024.97;5033627;28;20022;-84
2023/11/01 07:49:22;;;;;;;0.10;0.10;;;;;;;15.18;76.21;100020.09;5036952;28;20065;-85
2023/11/01 07:51:48;;;;;;;0.10;0.10;;;;;;;15.19;75.71;100017.34;5035190;28;20033;-85
2023/11/01 07:54:17;;;;;;;0.10;0.10;;;;;;;15.26;75.71;100019.69;5039721;28;20029;-84
2023/11/01 07:56:43;;;;;;;0.10;0.10;;;;;;;15.30;75.51;100013.22;5028527;28;20078;-85
2023/11/01 07:59:10;;;;;;;0.10;0.10;;;;;;;15.38;75.50;100013.69;5036796;28;20044;-83
2023/11/01 08:01:36;;;;;;;0.10;0.10;;;;;;;15.40;75.49;100019.78;5036135;28;20038;-83
2023/11/01 08:04:02;;;;;;;0.43;0.43;;;;;;;15.41;75.52;100010.84;5040634;28;20523;-83
2023/11/01 08:06:29;;;;;;;0.20;0.20;;;;;;;15.47;75.05;100007.84;5044196;28;20030;-84
2023/11/01 08:08:55;;;;;;;0.38;0.38;;;;;;;15.53;75.03;100006.66;5044980;28;20033;-84
2023/11/01 08:11:21;;;;;;;0.10;0.10;;;;;;;15.45;75.05;100007.09;5035001;28;20029;-84
2023/11/01 08:13:47;;;;;;;0.00;0.00;;;;;;;15.50;74.92;100002.38;5040410;28;20400;-82
2023/11/01 08:16:14;;;;;;;0.38;0.38;;;;;;;15.45;74.72;100011.56;5039662;28;20021;-82
2023/11/01 08:18:40;;;;;;;0.10;0.10;;;;;;;15.50;74.75;100001.47;5039380;28;20082;-83
2023/11/01 08:21:06;;;;;;;0.30;0.30;;;;;;;15.56;75.07;100000.31;5038345;28;20091;-83
2023/11/01 08:23:35;;;;;;;0.25;0.25;;;;;;;15.55;74.97;100003.91;5042119;28;20025;-82
2023/11/01 08:26:01;;;;;;;0.10;0.10;;;;;;;15.46;74.62;99999.94;5036767;28;20088;-82
2023/11/01 08:28:27;;;;;;;0.10;0.10;;;;;;;15.50;74.76;99997.03;5039143;28;20047;-82
2023/11/01 08:30:53;;;;;;;0.10;0.10;;;;;;;15.50;74.55;99996.16;5046935;28;20033;-80
2023/11/01 08:33:19;;;;;;;0.03;0.03;;;;;;;15.62;74.46;99991.97;5051644;28;20051;-83
2023/11/01 08:35:45;;;;;;;0.10;0.10;;;;;;;15.67;74.52;99990.75;5047004;28;20037;-83
2023/11/01 08:38:11;;;;;;;0.10;0.10;;;;;;;15.68;74.61;99992.47;5043575;28;20072;-83
2023/11/01 08:40:37;;;;;;;0.10;0.10;;;;;;;15.71;74.67;99983.44;5044140;28;20037;-83
2023/11/01 08:43:05;;;;;;;0.15;0.15;;;;;;;15.74;74.80;99988.63;5038879;28;20041;-83
2023/11/01 08:45:32;;;;;;;0.10;0.10;;;;;;;15.76;74.66;99980.50;5044427;28;20169;-83
2023/11/01 08:47:58;;;;;;;0.10;0.10;;;;;;;15.85;74.22;99980.03;5044473;28;20523;-84
2023/11/01 08:50:24;;;;;;;2.20;0.73;;;;;;;15.89;74.42;99973.56;5037564;28;20032;-84
2023/11/01 08:52:50;;;;;;;0.10;0.10;;;;;;;15.96;74.38;99971.41;5038129;28;20029;-84
2023/11/01 08:55:17;;;;;;;0.57;0.32;;;;;;;15.94;74.36;99976.84;5031558;28;20448;-83
2023/11/01 08:57:44;;;;;;;0.00;0.00;;;;;;;15.99;74.02;99974.78;5037503;28;20056;-83
2023/11/01 09:00:13;;;;;;;0.00;0.00;;;;;;;15.96;73.65;99971.41;5028739;28;20113;-83
2023/11/01 09:02:40;;;;;;;0.10;0.10;;;;;;;16.06;74.32;99969.09;5038385;28;20617;-83
2023/11/01 09:05:06;;;;;;;0.10;0.10;;;;;;;16.10;73.74;99967.94;5032880;28;20061;-81
2023/11/01 09:07:32;;;;;;;0.10;0.10;;;;;;;16.01;73.49;99956.84;5031129;28;20077;-84
2023/11/01 09:09:58;;;;;;;0.40;0.40;;;;;;;16.08;73.56;99960.03;5030889;28;20641;-84
2023/11/01 09:12:24;;;;;;;0.05;0.05;;;;;;;16.10;73.20;99959.94;5040211;28;20029;-83
2023/11/01 09:14:50;;;;;;;0.17;0.17;;;;;;;15.96;72.84;99950.91;5039075;28;20117;-83
2023/11/01 09:17:17;;;;;;;0.10;0.10;;;;;;;15.95;72.63;99959.88;5036617;28;20061;-83
2023/11/01 09:19:43;;;;;;;0.00;0.00;;;;;;;16.05;73.18;99954.00;5030810;28;20034;-83
2023/11/01 09:22:09;;;;;;;0.00;0.00;;;;;;;16.01;72.71;99954.19;5034517;28;20041;-83
2023/11/01 09:24:36;;;;;;;0.10;0.10;;;;;;;15.99;72.24;99952.56;5028536;28;20056;-84
2023/11/01 09:27:03;;;;;;;0.00;0.00;;;;;;;15.97;72.51;99951.75;5032971;28;20021;-84
2023/11/01 09:29:29;;;;;;;0.00;0.00;;;;;;;16.02;72.63;99952.34;5030097;28;20527;-83
2023/11/01 09:31:55;;;;;;;0.10;0.10;;;;;;;16.08;72.28;99957.34;5033747;28;20068;-83
2023/11/01 09:34:23;;;;;;;0.20;0.20;;;;;;;16.15;72.24;99950.72;5036765;28;20052;-84
2023/11/01 09:36:49;;;;;;;0.00;0.00;;;;;;;16.01;71.97;99956.84;5041628;28;20056;-84
2023/11/01 09:39:15;;;;;;;0.10;0.10;;;;;;;16.11;72.24;99959.88;5041859;28;20057;-82
2023/11/01 09:41:50;;;;;;;0.10;0.10;;;;;;;16.18;71.99;99950.53;5045024;28;20381;-82
2023/11/01 09:44:17;;;;;;;0.10;0.10;;;;;;;16.15;71.53;99941.84;5047584;28;20049;-83
2023/11/01 09:46:45;;;;;;;0.10;0.10;;;;;;;16.15;71.83;99944.53;5046882;28;20025;-83
2023/11/01 09:49:12;;;;;;;0.10;0.10;;;;;;;16.20;72.18;99947.78;5042676;28;20296;-84
2023/11/01 09:51:38;;;;;;;0.10;0.10;;;;;;;16.14;71.26;99940.13;5044910;28;20037;-82
2023/11/01 09:54:05;;;;;;;0.25;0.25;;;;;;;16.23;71.48;99930.72;5046344;28;20025;-84
2023/11/01 09:56:35;;;;;;;0.10;0.10;;;;;;;16.28;71.46;99934.81;5047349;28;20136;-82
2023/11/01 09:59:02;;;;;;;0.95;0.90;;;;;;;16.25;70.86;99928.78;5046754;28;20101;-84
2023/11/01 10:01:29;;;;;;;0.63;0.63;;;;;;;16.37;71.29;99922.72;5047097;28;20030;-84
2023/11/01 10:03:56;;;;;;;10.85;1.65;;;;;;;16.31;70.78;99923.97;5046753;28;20029;-83
2023/11/01 10:06:26;;;;;;;0.10;0.10;;;;;;;16.21;70.53;99933.44;5045287;28;20443;-82
2023/11/01 10:08:53;;;;;;;0.00;0.00;;;;;;;16.32;70.72;99920.34;5037396;28;20064;-83
2023/11/01 10:11:20;;;;;;;0.10;0.10;;;;;;;16.32;70.85;99924.81;5042307;28;20496;-84
2023/11/01 10:13:46;;;;;;;0.43;0.43;;;;;;;16.26;70.38;99919.81;5039517;28;20493;-84
2023/11/01 10:16:13;;;;;;;0.00;0.00;;;;;;;16.29;70.16;99917.84;5045379;28;20507;-84
2023/11/01 10:18:40;;;;;;;0.10;0.10;;;;;;;16.29;70.32;99925.00;5044554;28;20592;-85
2023/11/01 10:21:06;;;;;;;0.10;0.10;;;;;;;16.30;70.17;99922.22;5039592;28;20067;-83
2023/11/01 10:23:33;;;;;;;0.10;0.10;;;;;;;16.35;70.19;99913.94;5040475;28;20022;-84
2023/11/01 10:26:00;;;;;;;0.73;0.63;;;;;;;16.33;70.79;99910.50;5040321;28;20025;-84
2023/11/01 10:28:27;;;;;;;0.00;0.00;;;;;;;16.29;70.08;99911.63;5042275;28;20029;-83
2023/11/01 10:30:54;;;;;;;0.10;0.10;;;;;;;16.18;69.57;99902.41;5045754;28;20036;-83
2023/11/01 10:33:22;;;;;;;0.00;0.00;;;;;;;16.33;69.85;99916.69;5041081;28;20033;-83
2023/11/01 10:36:04;;;;;;;0.55;0.55;;;;;;;16.35;69.88;99911.28;5042390;28;20064;-83
2023/11/01 10:38:31;;;;;;;0.10;0.10;;;;;;;16.18;69.85;99904.25;5058174;28;20093;-82
2023/11/01 10:41:00;;;;;;;0.30;0.30;;;;;;;16.25;70.18;99902.06;5054625;28;20029;-84
2023/11/01 10:43:28;;;;;;;0.00;0.00;;;;;;;16.28;70.32;99893.88;5051200;28;20124;-83
2023/11/01 10:46:02;;;;;;;0.10;0.10;;;;;;;16.31;70.14;99893.69;5046318;28;20108;-83
2023/11/01 10:48:29;;;;;;;0.30;0.30;;;;;;;16.20;70.42;99888.13;5045616;28;20030;-84
2023/11/01 10:50:58;;;;;;;0.08;0.08;;;;;;;16.20;70.44;99877.41;5050211;28;20037;-83
2023/11/01 10:53:25;;;;;;;0.10;0.10;;;;;;;16.07;71.22;99872.78;5042371;28;20026;-83
2023/11/01 10:55:52;;;;;;;0.38;0.38;;;;;;;16.22;70.40;99876.38;5046918;28;20037;-83
2023/11/01 10:58:24;;;;;;;0.15;0.15;;;;;;;16.29;70.35;99869.72;5042242;28;20059;-79
2023/11/01 11:01:20;;;;;;;0.10;0.10;;;;;;;16.38;70.17;99854.94;5043910;28;20412;-79
2023/11/01 11:03:53;;;;;;;0.10;0.10;;;;;;;16.30;70.15;99843.88;5042743;28;20056;-83
2023/11/01 11:06:27;;;;;;;0.03;0.03;;;;;;;16.29;69.92;99845.66;5042876;28;20045;-81
2023/11/01 11:09:22;;;;;;;0.10;0.10;;;;;;;16.45;70.18;99840.25;5046911;28;20132;-82
2023/11/01 11:12:19;;;;;;;0.10;0.10;;;;;;;16.53;70.24;99852.31;5048395;28;20021;-80
2023/11/01 11:17:24;;;;;;;0.10;0.10;;;;;;;16.50;69.62;99827.47;5075985;28;20402;-82
2023/11/01 11:46:54;;;;;;;0.10;0.10;;;;;;;17.29;65.86;99763.69;5112777;27;20476;-82
2023/11/01 11:54:35;;;;;;;0.10;0.10;;;;;;;17.41;66.34;99747.81;5132208;27;20391;-81
2023/11/01 11:57:05;;;;;;;0.00;0.00;;;;;;;17.37;65.71;99747.13;5103790;28;20027;-81
2023/11/01 11:59:34;;;;;;;0.10;0.10;;;;;;;17.39;65.12;99742.53;5092470;28;20024;-81